Fort Jennings, OH (45844)

3:03 PM EST on February 25, 2017 (GMT -0500)
Rozelle Avenue | | Change Station

Elev 774 ft 40.85 °N, 84.33 °W | Updated 29 seconds ago

Overcast
Overcast
28.6 °F
Feels Like 21 °F
N
7.8
Wind Variable Wind from ESE

Today
High -- | Low -- °F
--% Chance of Precip.
Yesterday
High -- | Low -- °F
Precip. -- in
Pressure 29.85 in
Visibility 9.0 miles
Clouds Mostly Cloudy 2700 ft
Overcast 3700 ft
Windchill 21 °F
Dew Point 19 °F
Humidity 66%
Rainfall 0.00 in
Snow Depth Not available.
7:16 AM 6:24 PM
Waning Crescent, 1% visible
METAR KAOH 251953Z AUTO 26020G29KT 9SM BKN027 OVC037 M02/M07 A2983 RMK AO2 PK WND 25032/1915 UPE1855SNB35E50 SLP108 P0000 T10221067
Pressure 29.85 in
Visibility 9.0 miles
Clouds Mostly Cloudy 2700 ft
Overcast 3700 ft
Windchill 21 °F
Dew Point 19 °F
Humidity 66%
Rainfall 0.00 in
Snow Depth Not available.
7:16 AM 6:24 PM
Waning Crescent, 1% visible
METAR KAOH 251953Z AUTO 26020G29KT 9SM BKN027 OVC037 M02/M07 A2983 RMK AO2 PK WND 25032/1915 UPE1855SNB35E50 SLP108 P0000 T10221067

Get Your Daily Forecast Email!

Thanks for signing up!

Be on the lookout for a verification email in your inbox.

You'll start receiving the daily forecast at 8 AM.

×

10-Day Weather Forecast

Almanac

Astronomy

Feb. 25, 2017 Rise Set
Actual Time
Civil Twilight
Nautical Twilight
Astronomical Twilight
Moon
Length of Visible Light
Length of Day
Tomorrow will be .
, % of the Moon is Illuminated

Today's Extremes

State Highs State Lows

Community

WunderPhotos

Upload Photos

1,962,540 photos uploaded!

WunderBlog® & News

Nearby

Air Quality

  Air Quality AQ Index Pollutant
Not available.

Snow Depth

Station Depth Elevation

Earthquake Activity

City Distance Mag. Time & Date
Minimum magnitude displayed is 2.5.

Coastal Water Temperatures

Place Temperature

Stations

Nearby Weather Stations

Station Location Temp. Windchill Dew Point Humidity Wind Precip. Elev Updated Type
                   

Watches & Warnings

There are currently no watches in effect.